sensor_id;sensor_type;location;lat;lon;timestamp;P1;durP1;ratioP1;P2;durP2;ratioP2
21741;SDS011;11033;47.490;11.116;2023-08-12T00:00:23;10.13;;;9.23;;
21741;SDS011;11033;47.490;11.116;2023-08-12T00:02:48;9.75;;;8.88;;
21741;SDS011;11033;47.490;11.116;2023-08-12T00:05:13;9.30;;;8.60;;
21741;SDS011;11033;47.490;11.116;2023-08-12T00:07:39;10.03;;;9.30;;
21741;SDS011;11033;47.490;11.116;2023-08-12T00:10:07;10.35;;;9.43;;
21741;SDS011;11033;47.490;11.116;2023-08-12T00:12:34;9.75;;;8.80;;
21741;SDS011;11033;47.490;11.116;2023-08-12T00:14:59;9.68;;;8.98;;
21741;SDS011;11033;47.490;11.116;2023-08-12T00:17:24;10.30;;;9.50;;
21741;SDS011;11033;47.490;11.116;2023-08-12T00:19:49;9.50;;;8.80;;
21741;SDS011;11033;47.490;11.116;2023-08-12T00:22:15;9.67;;;8.87;;
21741;SDS011;11033;47.490;11.116;2023-08-12T00:24:40;9.43;;;8.53;;
21741;SDS011;11033;47.490;11.116;2023-08-12T00:27:05;9.83;;;9.03;;
21741;SDS011;11033;47.490;11.116;2023-08-12T00:29:31;10.27;;;9.32;;
21741;SDS011;11033;47.490;11.116;2023-08-12T00:31:57;10.20;;;9.20;;
21741;SDS011;11033;47.490;11.116;2023-08-12T00:34:22;9.57;;;8.88;;
21741;SDS011;11033;47.490;11.116;2023-08-12T00:36:47;9.80;;;9.00;;
21741;SDS011;11033;47.490;11.116;2023-08-12T00:39:13;10.17;;;9.20;;
21741;SDS011;11033;47.490;11.116;2023-08-12T00:41:39;10.13;;;9.23;;
21741;SDS011;11033;47.490;11.116;2023-08-12T00:44:04;10.37;;;8.43;;
21741;SDS011;11033;47.490;11.116;2023-08-12T00:46:29;9.70;;;8.70;;
21741;SDS011;11033;47.490;11.116;2023-08-12T00:48:54;9.75;;;8.90;;
21741;SDS011;11033;47.490;11.116;2023-08-12T00:51:19;9.47;;;8.77;;
21741;SDS011;11033;47.490;11.116;2023-08-12T00:53:45;9.82;;;8.98;;
21741;SDS011;11033;47.490;11.116;2023-08-12T00:56:11;9.77;;;9.00;;
21741;SDS011;11033;47.490;11.116;2023-08-12T00:58:36;10.23;;;9.27;;
21741;SDS011;11033;47.490;11.116;2023-08-12T01:01:02;10.68;;;8.27;;
21741;SDS011;11033;47.490;11.116;2023-08-12T01:03:27;9.50;;;8.70;;
21741;SDS011;11033;47.490;11.116;2023-08-12T01:05:53;14.90;;;8.63;;
21741;SDS011;11033;47.490;11.116;2023-08-12T01:08:18;9.43;;;8.60;;
21741;SDS011;11033;47.490;11.116;2023-08-12T01:10:44;9.23;;;8.53;;
21741;SDS011;11033;47.490;11.116;2023-08-12T01:13:34;9.77;;;9.07;;
21741;SDS011;11033;47.490;11.116;2023-08-12T01:15:56;10.00;;;8.88;;
21741;SDS011;11033;47.490;11.116;2023-08-12T01:18:23;10.80;;;9.35;;
21741;SDS011;11033;47.490;11.116;2023-08-12T01:20:49;10.32;;;9.55;;
21741;SDS011;11033;47.490;11.116;2023-08-12T01:23:14;9.53;;;8.67;;
21741;SDS011;11033;47.490;11.116;2023-08-12T01:25:40;9.80;;;8.77;;
21741;SDS011;11033;47.490;11.116;2023-08-12T01:28:05;9.45;;;8.75;;
21741;SDS011;11033;47.490;11.116;2023-08-12T01:30:32;9.30;;;8.32;;
21741;SDS011;11033;47.490;11.116;2023-08-12T01:33:07;9.98;;;8.95;;
21741;SDS011;11033;47.490;11.116;2023-08-12T01:38:00;10.63;;;9.40;;
21741;SDS011;11033;47.490;11.116;2023-08-12T01:40:27;9.63;;;8.93;;
21741;SDS011;11033;47.490;11.116;2023-08-12T01:42:53;9.48;;;8.65;;
21741;SDS011;11033;47.490;11.116;2023-08-12T01:45:18;9.82;;;8.88;;
21741;SDS011;11033;47.490;11.116;2023-08-12T01:47:44;9.60;;;8.82;;
21741;SDS011;11033;47.490;11.116;2023-08-12T01:50:09;8.30;;;7.50;;
21741;SDS011;11033;47.490;11.116;2023-08-12T01:52:35;8.73;;;8.13;;
21741;SDS011;11033;47.490;11.116;2023-08-12T01:55:00;8.50;;;7.90;;
21741;SDS011;11033;47.490;11.116;2023-08-12T01:57:25;9.27;;;8.50;;
21741;SDS011;11033;47.490;11.116;2023-08-12T01:59:51;9.20;;;8.30;;
21741;SDS011;11033;47.490;11.116;2023-08-12T02:02:16;10.77;;;8.40;;
21741;SDS011;11033;47.490;11.116;2023-08-12T02:04:41;9.03;;;8.23;;
21741;SDS011;11033;47.490;11.116;2023-08-12T02:07:08;9.10;;;8.13;;
21741;SDS011;11033;47.490;11.116;2023-08-12T02:09:33;8.30;;;7.60;;
21741;SDS011;11033;47.490;11.116;2023-08-12T02:11:58;9.27;;;8.43;;
21741;SDS011;11033;47.490;11.116;2023-08-12T02:14:23;9.13;;;8.33;;
21741;SDS011;11033;47.490;11.116;2023-08-12T02:16:48;9.18;;;8.40;;
21741;SDS011;11033;47.490;11.116;2023-08-12T02:19:14;10.37;;;7.87;;
21741;SDS011;11033;47.490;11.116;2023-08-12T02:21:39;8.70;;;7.90;;
21741;SDS011;11033;47.490;11.116;2023-08-12T02:24:04;8.80;;;8.10;;
21741;SDS011;11033;47.490;11.116;2023-08-12T02:26:30;8.88;;;8.07;;
21741;SDS011;11033;47.490;11.116;2023-08-12T02:28:55;9.48;;;7.85;;
21741;SDS011;11033;47.490;11.116;2023-08-12T02:31:20;9.05;;;8.27;;
21741;SDS011;11033;47.490;11.116;2023-08-12T02:33:46;8.70;;;8.00;;
21741;SDS011;11033;47.490;11.116;2023-08-12T02:36:11;8.57;;;7.87;;
21741;SDS011;11033;47.490;11.116;2023-08-12T02:38:36;9.53;;;8.03;;
21741;SDS011;11033;47.490;11.116;2023-08-12T02:41:01;8.57;;;7.57;;
21741;SDS011;11033;47.490;11.116;2023-08-12T02:43:26;8.03;;;7.43;;
21741;SDS011;11033;47.490;11.116;2023-08-12T02:45:52;9.23;;;8.43;;
21741;SDS011;11033;47.490;11.116;2023-08-12T02:48:17;8.30;;;7.57;;
21741;SDS011;11033;47.490;11.116;2023-08-12T02:50:42;8.53;;;7.90;;
21741;SDS011;11033;47.490;11.116;2023-08-12T02:53:07;9.27;;;7.90;;
21741;SDS011;11033;47.490;11.116;2023-08-12T02:55:33;8.00;;;7.30;;
21741;SDS011;11033;47.490;11.116;2023-08-12T02:57:58;8.95;;;8.25;;
21741;SDS011;11033;47.490;11.116;2023-08-12T03:00:24;8.00;;;7.30;;
21741;SDS011;11033;47.490;11.116;2023-08-12T03:02:49;8.40;;;7.17;;
21741;SDS011;11033;47.490;11.116;2023-08-12T03:05:14;8.60;;;7.90;;
21741;SDS011;11033;47.490;11.116;2023-08-12T03:07:40;8.98;;;8.07;;
21741;SDS011;11033;47.490;11.116;2023-08-12T03:10:05;9.73;;;8.93;;
21741;SDS011;11033;47.490;11.116;2023-08-12T03:12:30;9.77;;;8.95;;
21741;SDS011;11033;47.490;11.116;2023-08-12T03:14:56;8.73;;;7.97;;
21741;SDS011;11033;47.490;11.116;2023-08-12T03:17:21;9.70;;;8.90;;
21741;SDS011;11033;47.490;11.116;2023-08-12T03:19:46;8.13;;;7.33;;
21741;SDS011;11033;47.490;11.116;2023-08-12T03:22:11;7.97;;;7.37;;
21741;SDS011;11033;47.490;11.116;2023-08-12T03:24:36;7.90;;;7.40;;
21741;SDS011;11033;47.490;11.116;2023-08-12T03:27:02;8.87;;;7.97;;
21741;SDS011;11033;47.490;11.116;2023-08-12T03:29:27;7.93;;;7.17;;
21741;SDS011;11033;47.490;11.116;2023-08-12T03:31:52;8.43;;;7.70;;
21741;SDS011;11033;47.490;11.116;2023-08-12T03:34:17;7.95;;;7.28;;
21741;SDS011;11033;47.490;11.116;2023-08-12T03:36:42;8.23;;;7.43;;
21741;SDS011;11033;47.490;11.116;2023-08-12T03:39:08;8.53;;;7.73;;
21741;SDS011;11033;47.490;11.116;2023-08-12T03:41:33;8.50;;;7.80;;
21741;SDS011;11033;47.490;11.116;2023-08-12T03:43:58;7.93;;;7.33;;
21741;SDS011;11033;47.490;11.116;2023-08-12T03:46:23;9.07;;;8.02;;
21741;SDS011;11033;47.490;11.116;2023-08-12T03:48:48;9.10;;;7.90;;
21741;SDS011;11033;47.490;11.116;2023-08-12T03:51:14;8.23;;;7.53;;
21741;SDS011;11033;47.490;11.116;2023-08-12T03:53:39;8.17;;;7.47;;
21741;SDS011;11033;47.490;11.116;2023-08-12T03:56:04;8.43;;;7.77;;
21741;SDS011;11033;47.490;11.116;2023-08-12T03:58:29;9.37;;;8.43;;
21741;SDS011;11033;47.490;11.116;2023-08-12T04:00:54;9.27;;;8.57;;
21741;SDS011;11033;47.490;11.116;2023-08-12T04:03:20;8.15;;;7.47;;
21741;SDS011;11033;47.490;11.116;2023-08-12T04:05:51;8.10;;;7.40;;
21741;SDS011;11033;47.490;11.116;2023-08-12T04:08:18;8.38;;;7.72;;
21741;SDS011;11033;47.490;11.116;2023-08-12T04:10:44;8.25;;;7.65;;
21741;SDS011;11033;47.490;11.116;2023-08-12T04:13:09;7.65;;;7.05;;
21741;SDS011;11033;47.490;11.116;2023-08-12T04:15:34;8.23;;;7.57;;
21741;SDS011;11033;47.490;11.116;2023-08-12T04:18:00;9.47;;;7.57;;
21741;SDS011;11033;47.490;11.116;2023-08-12T04:20:25;7.65;;;7.05;;
21741;SDS011;11033;47.490;11.116;2023-08-12T04:22:50;8.47;;;7.60;;
21741;SDS011;11033;47.490;11.116;2023-08-12T04:25:15;7.97;;;7.27;;
21741;SDS011;11033;47.490;11.116;2023-08-12T04:27:41;8.10;;;7.50;;
21741;SDS011;11033;47.490;11.116;2023-08-12T04:30:06;8.30;;;7.70;;
21741;SDS011;11033;47.490;11.116;2023-08-12T04:32:31;8.00;;;7.43;;
21741;SDS011;11033;47.490;11.116;2023-08-12T04:34:57;8.50;;;7.70;;
21741;SDS011;11033;47.490;11.116;2023-08-12T04:37:22;8.60;;;7.80;;
21741;SDS011;11033;47.490;11.116;2023-08-12T04:39:49;8.63;;;7.85;;
21741;SDS011;11033;47.490;11.116;2023-08-12T04:42:14;8.03;;;7.43;;
21741;SDS011;11033;47.490;11.116;2023-08-12T04:44:39;8.17;;;7.53;;
21741;SDS011;11033;47.490;11.116;2023-08-12T04:47:04;8.23;;;7.43;;
21741;SDS011;11033;47.490;11.116;2023-08-12T04:49:30;9.30;;;8.50;;
21741;SDS011;11033;47.490;11.116;2023-08-12T04:51:55;8.93;;;8.13;;
21741;SDS011;11033;47.490;11.116;2023-08-12T04:54:20;9.27;;;8.10;;
21741;SDS011;11033;47.490;11.116;2023-08-12T04:56:46;8.07;;;7.50;;
21741;SDS011;11033;47.490;11.116;2023-08-12T04:59:11;8.98;;;8.27;;
21741;SDS011;11033;47.490;11.116;2023-08-12T05:01:36;9.35;;;8.55;;
21741;SDS011;11033;47.490;11.116;2023-08-12T05:04:02;9.05;;;8.20;;
21741;SDS011;11033;47.490;11.116;2023-08-12T05:06:27;8.57;;;7.87;;
21741;SDS011;11033;47.490;11.116;2023-08-12T05:08:52;8.53;;;7.73;;
21741;SDS011;11033;47.490;11.116;2023-08-12T05:11:17;9.43;;;8.23;;
21741;SDS011;11033;47.490;11.116;2023-08-12T05:13:43;9.57;;;8.67;;
21741;SDS011;11033;47.490;11.116;2023-08-12T05:16:08;9.20;;;8.40;;
21741;SDS011;11033;47.490;11.116;2023-08-12T05:18:33;8.43;;;7.73;;
21741;SDS011;11033;47.490;11.116;2023-08-12T05:20:58;9.43;;;8.60;;
21741;SDS011;11033;47.490;11.116;2023-08-12T05:23:24;8.80;;;8.13;;
21741;SDS011;11033;47.490;11.116;2023-08-12T05:25:49;7.40;;;6.90;;
21741;SDS011;11033;47.490;11.116;2023-08-12T05:28:14;8.80;;;7.77;;
21741;SDS011;11033;47.490;11.116;2023-08-12T05:30:39;8.50;;;7.90;;
21741;SDS011;11033;47.490;11.116;2023-08-12T05:33:04;8.70;;;7.97;;
21741;SDS011;11033;47.490;11.116;2023-08-12T05:35:36;8.30;;;7.70;;
21741;SDS011;11033;47.490;11.116;2023-08-12T05:38:01;11.38;;;8.52;;
21741;SDS011;11033;47.490;11.116;2023-08-12T05:40:27;8.85;;;8.15;;
21741;SDS011;11033;47.490;11.116;2023-08-12T05:42:52;8.70;;;8.00;;
21741;SDS011;11033;47.490;11.116;2023-08-12T05:45:17;8.27;;;7.67;;
21741;SDS011;11033;47.490;11.116;2023-08-12T05:47:42;9.00;;;8.30;;
21741;SDS011;11033;47.490;11.116;2023-08-12T05:50:08;11.40;;;7.93;;
21741;SDS011;11033;47.490;11.116;2023-08-12T05:52:33;8.80;;;8.10;;
21741;SDS011;11033;47.490;11.116;2023-08-12T05:54:58;9.33;;;8.47;;
21741;SDS011;11033;47.490;11.116;2023-08-12T05:57:23;8.10;;;7.60;;
21741;SDS011;11033;47.490;11.116;2023-08-12T05:59:49;8.70;;;8.10;;
21741;SDS011;11033;47.490;11.116;2023-08-12T06:02:14;8.93;;;8.23;;
21741;SDS011;11033;47.490;11.116;2023-08-12T06:04:39;8.75;;;8.15;;
21741;SDS011;11033;47.490;11.116;2023-08-12T06:07:05;9.50;;;8.50;;
21741;SDS011;11033;47.490;11.116;2023-08-12T06:09:30;8.97;;;8.30;;
21741;SDS011;11033;47.490;11.116;2023-08-12T06:11:55;9.43;;;8.73;;
21741;SDS011;11033;47.490;11.116;2023-08-12T06:14:20;8.47;;;7.87;;
21741;SDS011;11033;47.490;11.116;2023-08-12T06:16:45;9.97;;;9.00;;
21741;SDS011;11033;47.490;11.116;2023-08-12T06:19:10;9.23;;;8.53;;
21741;SDS011;11033;47.490;11.116;2023-08-12T06:21:35;9.33;;;8.47;;
21741;SDS011;11033;47.490;11.116;2023-08-12T06:24:01;9.97;;;9.07;;
21741;SDS011;11033;47.490;11.116;2023-08-12T06:26:26;9.45;;;8.75;;
21741;SDS011;11033;47.490;11.116;2023-08-12T06:28:51;10.07;;;9.37;;
21741;SDS011;11033;47.490;11.116;2023-08-12T06:31:17;10.27;;;9.60;;
21741;SDS011;11033;47.490;11.116;2023-08-12T06:33:42;9.37;;;8.70;;
21741;SDS011;11033;47.490;11.116;2023-08-12T06:36:07;10.33;;;9.40;;
21741;SDS011;11033;47.490;11.116;2023-08-12T06:38:32;9.37;;;8.73;;
21741;SDS011;11033;47.490;11.116;2023-08-12T06:40:57;9.70;;;8.83;;
21741;SDS011;11033;47.490;11.116;2023-08-12T06:43:22;9.73;;;8.77;;
21741;SDS011;11033;47.490;11.116;2023-08-12T06:45:47;9.83;;;8.77;;
21741;SDS011;11033;47.490;11.116;2023-08-12T06:48:13;9.63;;;8.77;;
21741;SDS011;11033;47.490;11.116;2023-08-12T06:50:38;10.50;;;9.60;;
21741;SDS011;11033;47.490;11.116;2023-08-12T06:53:03;9.47;;;8.97;;
21741;SDS011;11033;47.490;11.116;2023-08-12T06:55:29;10.65;;;9.68;;
21741;SDS011;11033;47.490;11.116;2023-08-12T06:57:54;10.70;;;9.77;;
21741;SDS011;11033;47.490;11.116;2023-08-12T07:00:19;10.80;;;10.03;;
21741;SDS011;11033;47.490;11.116;2023-08-12T07:02:44;9.83;;;9.23;;
21741;SDS011;11033;47.490;11.116;2023-08-12T07:05:09;10.33;;;9.73;;
21741;SDS011;11033;47.490;11.116;2023-08-12T07:07:35;9.87;;;9.17;;
21741;SDS011;11033;47.490;11.116;2023-08-12T07:10:00;11.00;;;10.17;;
21741;SDS011;11033;47.490;11.116;2023-08-12T07:12:25;10.53;;;9.93;;
21741;SDS011;11033;47.490;11.116;2023-08-12T07:14:50;11.17;;;10.37;;
21741;SDS011;11033;47.490;11.116;2023-08-12T07:17:15;9.70;;;8.77;;
21741;SDS011;11033;47.490;11.116;2023-08-12T07:19:41;10.17;;;9.47;;
21741;SDS011;11033;47.490;11.116;2023-08-12T07:22:06;10.07;;;9.37;;
21741;SDS011;11033;47.490;11.116;2023-08-12T07:24:31;10.80;;;10.10;;
21741;SDS011;11033;47.490;11.116;2023-08-12T07:26:56;10.90;;;10.27;;
21741;SDS011;11033;47.490;11.116;2023-08-12T07:29:21;10.33;;;9.60;;
21741;SDS011;11033;47.490;11.116;2023-08-12T07:31:46;10.07;;;9.37;;
21741;SDS011;11033;47.490;11.116;2023-08-12T07:34:12;10.67;;;9.97;;
21741;SDS011;11033;47.490;11.116;2023-08-12T07:36:40;10.02;;;9.43;;
21741;SDS011;11033;47.490;11.116;2023-08-12T07:39:05;10.70;;;9.82;;
21741;SDS011;11033;47.490;11.116;2023-08-12T07:41:31;9.57;;;9.07;;
21741;SDS011;11033;47.490;11.116;2023-08-12T07:43:56;10.40;;;9.80;;
21741;SDS011;11033;47.490;11.116;2023-08-12T07:46:21;10.97;;;10.07;;
21741;SDS011;11033;47.490;11.116;2023-08-12T07:48:47;10.97;;;10.23;;
21741;SDS011;11033;47.490;11.116;2023-08-12T07:51:12;10.47;;;9.67;;
21741;SDS011;11033;47.490;11.116;2023-08-12T07:53:37;11.00;;;10.30;;
21741;SDS011;11033;47.490;11.116;2023-08-12T07:56:02;11.93;;;11.10;;
21741;SDS011;11033;47.490;11.116;2023-08-12T07:58:27;11.57;;;10.70;;
21741;SDS011;11033;47.490;11.116;2023-08-12T08:00:53;10.80;;;10.10;;
21741;SDS011;11033;47.490;11.116;2023-08-12T08:03:19;11.00;;;10.30;;
21741;SDS011;11033;47.490;11.116;2023-08-12T08:05:44;10.67;;;9.80;;
21741;SDS011;11033;47.490;11.116;2023-08-12T08:08:10;10.73;;;10.02;;
21741;SDS011;11033;47.490;11.116;2023-08-12T08:10:35;10.90;;;10.10;;
21741;SDS011;11033;47.490;11.116;2023-08-12T08:13:01;11.23;;;10.33;;
21741;SDS011;11033;47.490;11.116;2023-08-12T08:15:26;11.47;;;10.57;;
21741;SDS011;11033;47.490;11.116;2023-08-12T08:17:51;10.63;;;9.93;;
21741;SDS011;11033;47.490;11.116;2023-08-12T08:20:16;10.97;;;10.17;;
21741;SDS011;11033;47.490;11.116;2023-08-12T08:22:41;10.60;;;9.90;;
21741;SDS011;11033;47.490;11.116;2023-08-12T08:25:06;10.07;;;9.47;;
21741;SDS011;11033;47.490;11.116;2023-08-12T08:27:32;10.80;;;10.10;;
21741;SDS011;11033;47.490;11.116;2023-08-12T08:29:57;10.77;;;9.97;;
21741;SDS011;11033;47.490;11.116;2023-08-12T08:32:22;11.23;;;10.48;;
21741;SDS011;11033;47.490;11.116;2023-08-12T08:34:48;10.87;;;10.07;;
21741;SDS011;11033;47.490;11.116;2023-08-12T08:37:13;11.23;;;10.20;;
21741;SDS011;11033;47.490;11.116;2023-08-12T08:39:38;11.03;;;10.13;;
21741;SDS011;11033;47.490;11.116;2023-08-12T08:42:04;11.93;;;10.80;;
21741;SDS011;11033;47.490;11.116;2023-08-12T08:44:30;10.85;;;10.15;;
21741;SDS011;11033;47.490;11.116;2023-08-12T08:46:57;10.27;;;9.68;;
21741;SDS011;11033;47.490;11.116;2023-08-12T08:49:23;11.00;;;10.20;;
21741;SDS011;11033;47.490;11.116;2023-08-12T08:51:48;11.07;;;10.35;;
21741;SDS011;11033;47.490;11.116;2023-08-12T08:54:14;10.38;;;9.55;;
21741;SDS011;11033;47.490;11.116;2023-08-12T08:56:40;10.70;;;9.85;;
21741;SDS011;11033;47.490;11.116;2023-08-12T08:59:05;11.48;;;10.45;;
21741;SDS011;11033;47.490;11.116;2023-08-12T09:01:30;10.30;;;9.63;;
21741;SDS011;11033;47.490;11.116;2023-08-12T09:03:56;11.30;;;10.48;;
21741;SDS011;11033;47.490;11.116;2023-08-12T09:06:22;10.75;;;10.00;;
21741;SDS011;11033;47.490;11.116;2023-08-12T09:08:49;11.73;;;10.73;;
21741;SDS011;11033;47.490;11.116;2023-08-12T09:11:16;10.50;;;9.80;;
21741;SDS011;11033;47.490;11.116;2023-08-12T09:13:41;10.77;;;10.07;;
21741;SDS011;11033;47.490;11.116;2023-08-12T09:16:07;10.60;;;9.90;;
21741;SDS011;11033;47.490;11.116;2023-08-12T09:18:32;11.60;;;10.80;;
21741;SDS011;11033;47.490;11.116;2023-08-12T09:20:57;11.23;;;10.50;;
21741;SDS011;11033;47.490;11.116;2023-08-12T09:23:23;11.60;;;10.70;;
21741;SDS011;11033;47.490;11.116;2023-08-12T09:25:48;11.90;;;11.13;;
21741;SDS011;11033;47.490;11.116;2023-08-12T09:28:13;11.32;;;10.73;;
21741;SDS011;11033;47.490;11.116;2023-08-12T09:30:38;11.43;;;10.73;;
21741;SDS011;11033;47.490;11.116;2023-08-12T09:33:05;12.02;;;11.32;;
21741;SDS011;11033;47.490;11.116;2023-08-12T09:35:36;11.07;;;10.35;;
21741;SDS011;11033;47.490;11.116;2023-08-12T09:38:02;11.32;;;10.63;;
21741;SDS011;11033;47.490;11.116;2023-08-12T09:40:27;11.85;;;10.95;;
21741;SDS011;11033;47.490;11.116;2023-08-12T09:42:53;11.87;;;10.93;;
21741;SDS011;11033;47.490;11.116;2023-08-12T09:45:22;10.73;;;9.90;;
21741;SDS011;11033;47.490;11.116;2023-08-12T09:47:48;10.65;;;10.02;;
21741;SDS011;11033;47.490;11.116;2023-08-12T09:50:13;10.70;;;10.00;;
21741;SDS011;11033;47.490;11.116;2023-08-12T09:52:39;11.50;;;10.63;;
21741;SDS011;11033;47.490;11.116;2023-08-12T09:55:04;10.20;;;9.57;;
21741;SDS011;11033;47.490;11.116;2023-08-12T09:57:30;10.45;;;9.75;;
21741;SDS011;11033;47.490;11.116;2023-08-12T09:59:57;10.82;;;10.13;;
21741;SDS011;11033;47.490;11.116;2023-08-12T10:02:23;10.73;;;10.07;;
21741;SDS011;11033;47.490;11.116;2023-08-12T10:04:49;11.18;;;10.48;;
21741;SDS011;11033;47.490;11.116;2023-08-12T10:07:15;11.40;;;10.70;;
21741;SDS011;11033;47.490;11.116;2023-08-12T10:09:42;11.32;;;10.57;;
21741;SDS011;11033;47.490;11.116;2023-08-12T10:12:08;11.07;;;10.45;;
21741;SDS011;11033;47.490;11.116;2023-08-12T10:14:34;11.60;;;10.70;;
21741;SDS011;11033;47.490;11.116;2023-08-12T10:16:59;11.57;;;10.85;;
21741;SDS011;11033;47.490;11.116;2023-08-12T10:19:24;12.32;;;11.48;;
21741;SDS011;11033;47.490;11.116;2023-08-12T10:21:50;10.60;;;9.93;;
21741;SDS011;11033;47.490;11.116;2023-08-12T10:24:19;10.13;;;9.50;;
21741;SDS011;11033;47.490;11.116;2023-08-12T10:26:44;11.10;;;10.32;;
21741;SDS011;11033;47.490;11.116;2023-08-12T10:29:10;12.43;;;11.52;;
21741;SDS011;11033;47.490;11.116;2023-08-12T10:31:37;11.15;;;10.43;;
21741;SDS011;11033;47.490;11.116;2023-08-12T10:34:03;11.35;;;10.65;;
21741;SDS011;11033;47.490;11.116;2023-08-12T10:36:28;11.52;;;10.70;;
21741;SDS011;11033;47.490;11.116;2023-08-12T10:38:55;11.88;;;11.18;;
21741;SDS011;11033;47.490;11.116;2023-08-12T10:41:24;11.55;;;10.65;;
21741;SDS011;11033;47.490;11.116;2023-08-12T10:43:59;11.50;;;10.77;;
21741;SDS011;11033;47.490;11.116;2023-08-12T10:46:32;11.77;;;10.85;;
21741;SDS011;11033;47.490;11.116;2023-08-12T10:49:07;11.40;;;10.60;;
21741;SDS011;11033;47.490;11.116;2023-08-12T10:51:39;10.82;;;10.05;;
21741;SDS011;11033;47.490;11.116;2023-08-12T10:54:15;14.75;;;10.90;;
21741;SDS011;11033;47.490;11.116;2023-08-12T10:57:04;11.40;;;10.80;;
21741;SDS011;11033;47.490;11.116;2023-08-12T11:02:16;11.52;;;10.82;;
21741;SDS011;11033;47.490;11.116;2023-08-12T11:04:41;12.00;;;11.27;;
21741;SDS011;11033;47.490;11.116;2023-08-12T11:07:17;12.07;;;11.38;;
21741;SDS011;11033;47.490;11.116;2023-08-12T11:09:43;12.63;;;11.73;;
21741;SDS011;11033;47.490;11.116;2023-08-12T11:12:09;11.43;;;10.75;;
21741;SDS011;11033;47.490;11.116;2023-08-12T11:14:46;12.17;;;11.57;;
21741;SDS011;11033;47.490;11.116;2023-08-12T11:17:13;11.82;;;11.23;;
21741;SDS011;11033;47.490;11.116;2023-08-12T11:19:38;11.68;;;10.98;;
21741;SDS011;11033;47.490;11.116;2023-08-12T11:22:03;11.50;;;10.90;;
21741;SDS011;11033;47.490;11.116;2023-08-12T11:24:29;10.52;;;10.02;;
21741;SDS011;11033;47.490;11.116;2023-08-12T11:26:56;11.52;;;10.73;;
21741;SDS011;11033;47.490;11.116;2023-08-12T11:29:22;10.73;;;10.13;;
21741;SDS011;11033;47.490;11.116;2023-08-12T11:31:47;10.50;;;9.90;;
21741;SDS011;11033;47.490;11.116;2023-08-12T11:34:12;10.70;;;10.10;;
21741;SDS011;11033;47.490;11.116;2023-08-12T11:36:38;10.50;;;9.63;;
21741;SDS011;11033;47.490;11.116;2023-08-12T11:39:03;10.85;;;10.25;;
21741;SDS011;11033;47.490;11.116;2023-08-12T11:41:28;11.07;;;10.37;;
21741;SDS011;11033;47.490;11.116;2023-08-12T11:43:53;10.80;;;9.63;;
21741;SDS011;11033;47.490;11.116;2023-08-12T11:46:19;10.90;;;9.93;;
21741;SDS011;11033;47.490;11.116;2023-08-12T11:48:44;10.53;;;10.03;;
21741;SDS011;11033;47.490;11.116;2023-08-12T11:51:09;11.03;;;10.33;;
21741;SDS011;11033;47.490;11.116;2023-08-12T11:53:34;10.97;;;10.17;;
21741;SDS011;11033;47.490;11.116;2023-08-12T11:55:59;11.30;;;10.70;;
21741;SDS011;11033;47.490;11.116;2023-08-12T11:58:25;11.43;;;10.73;;
21741;SDS011;11033;47.490;11.116;2023-08-12T12:00:50;11.10;;;10.50;;
21741;SDS011;11033;47.490;11.116;2023-08-12T12:03:15;11.90;;;11.10;;
21741;SDS011;11033;47.490;11.116;2023-08-12T12:05:41;11.10;;;10.40;;
21741;SDS011;11033;47.490;11.116;2023-08-12T12:08:06;11.33;;;10.50;;
21741;SDS011;11033;47.490;11.116;2023-08-12T12:10:34;12.48;;;11.38;;
21741;SDS011;11033;47.490;11.116;2023-08-12T12:13:00;11.90;;;11.30;;
21741;SDS011;11033;47.490;11.116;2023-08-12T12:15:25;11.20;;;10.40;;
21741;SDS011;11033;47.490;11.116;2023-08-12T12:17:50;11.17;;;10.30;;
21741;SDS011;11033;47.490;11.116;2023-08-12T12:20:16;11.52;;;10.75;;
21741;SDS011;11033;47.490;11.116;2023-08-12T12:22:42;11.80;;;11.13;;
21741;SDS011;11033;47.490;11.116;2023-08-12T12:25:09;10.50;;;9.85;;
21741;SDS011;11033;47.490;11.116;2023-08-12T12:27:35;11.68;;;10.93;;
21741;SDS011;11033;47.490;11.116;2023-08-12T12:30:01;11.13;;;10.40;;
21741;SDS011;11033;47.490;11.116;2023-08-12T12:32:26;10.80;;;10.17;;
21741;SDS011;11033;47.490;11.116;2023-08-12T12:34:51;10.77;;;10.07;;
21741;SDS011;11033;47.490;11.116;2023-08-12T12:37:17;10.93;;;10.13;;
21741;SDS011;11033;47.490;11.116;2023-08-12T12:39:43;10.97;;;10.23;;
21741;SDS011;11033;47.490;11.116;2023-08-12T12:42:08;10.33;;;9.73;;
21741;SDS011;11033;47.490;11.116;2023-08-12T12:44:33;10.02;;;9.38;;
21741;SDS011;11033;47.490;11.116;2023-08-12T12:46:59;10.93;;;10.10;;
21741;SDS011;11033;47.490;11.116;2023-08-12T12:49:24;11.18;;;10.43;;
21741;SDS011;11033;47.490;11.116;2023-08-12T12:51:49;10.57;;;9.83;;
21741;SDS011;11033;47.490;11.116;2023-08-12T12:54:14;10.87;;;10.17;;
21741;SDS011;11033;47.490;11.116;2023-08-12T12:56:39;10.83;;;10.20;;
21741;SDS011;11033;47.490;11.116;2023-08-12T12:59:05;11.80;;;11.00;;
21741;SDS011;11033;47.490;11.116;2023-08-12T13:01:30;11.35;;;10.65;;
21741;SDS011;11033;47.490;11.116;2023-08-12T13:03:55;10.60;;;9.80;;
21741;SDS011;11033;47.490;11.116;2023-08-12T13:06:20;10.97;;;9.90;;
21741;SDS011;11033;47.490;11.116;2023-08-12T13:08:45;11.10;;;10.23;;
21741;SDS011;11033;47.490;11.116;2023-08-12T13:11:11;10.70;;;9.90;;
21741;SDS011;11033;47.490;11.116;2023-08-12T13:13:36;10.87;;;10.17;;
21741;SDS011;11033;47.490;11.116;2023-08-12T13:16:01;10.47;;;9.73;;
21741;SDS011;11033;47.490;11.116;2023-08-12T13:18:27;11.23;;;10.38;;
21741;SDS011;11033;47.490;11.116;2023-08-12T13:20:52;12.07;;;11.17;;
21741;SDS011;11033;47.490;11.116;2023-08-12T13:23:17;12.17;;;11.37;;
21741;SDS011;11033;47.490;11.116;2023-08-12T13:25:43;12.40;;;11.57;;
21741;SDS011;11033;47.490;11.116;2023-08-12T13:28:08;12.77;;;11.80;;
21741;SDS011;11033;47.490;11.116;2023-08-12T13:30:33;12.02;;;11.27;;
21741;SDS011;11033;47.490;11.116;2023-08-12T13:32:58;13.37;;;12.30;;
21741;SDS011;11033;47.490;11.116;2023-08-12T13:35:24;12.38;;;11.50;;
21741;SDS011;11033;47.490;11.116;2023-08-12T13:37:49;13.63;;;12.83;;
21741;SDS011;11033;47.490;11.116;2023-08-12T13:40:16;12.57;;;11.88;;
21741;SDS011;11033;47.490;11.116;2023-08-12T13:42:41;13.18;;;12.48;;
21741;SDS011;11033;47.490;11.116;2023-08-12T13:45:06;14.70;;;13.73;;
21741;SDS011;11033;47.490;11.116;2023-08-12T13:47:33;14.98;;;14.07;;
21741;SDS011;11033;47.490;11.116;2023-08-12T13:49:59;14.90;;;14.02;;
21741;SDS011;11033;47.490;11.116;2023-08-12T13:52:24;14.70;;;13.90;;
21741;SDS011;11033;47.490;11.116;2023-08-12T13:54:49;14.53;;;13.67;;
21741;SDS011;11033;47.490;11.116;2023-08-12T13:57:14;13.33;;;12.63;;
21741;SDS011;11033;47.490;11.116;2023-08-12T13:59:39;13.10;;;12.30;;
21741;SDS011;11033;47.490;11.116;2023-08-12T14:02:08;14.07;;;13.00;;
21741;SDS011;11033;47.490;11.116;2023-08-12T14:04:33;13.77;;;12.83;;
21741;SDS011;11033;47.490;11.116;2023-08-12T14:06:58;12.40;;;11.80;;
21741;SDS011;11033;47.490;11.116;2023-08-12T14:09:24;13.23;;;12.53;;
21741;SDS011;11033;47.490;11.116;2023-08-12T14:11:49;13.33;;;12.63;;
21741;SDS011;11033;47.490;11.116;2023-08-12T14:14:14;12.77;;;11.88;;
21741;SDS011;11033;47.490;11.116;2023-08-12T14:16:39;13.00;;;12.10;;